sensor_id;sensor_type;location;lat;lon;timestamp;P1;durP1;ratioP1;P2;durP2;ratioP2
22121;SDS011;11227;53.046;10.512;2022-12-07T00:02:52;14.38;;;6.20;;
22121;SDS011;11227;53.046;10.512;2022-12-07T00:06:54;15.50;;;6.55;;
22121;SDS011;11227;53.046;10.512;2022-12-07T00:10:59;13.68;;;6.10;;
22121;SDS011;11227;53.046;10.512;2022-12-07T00:15:05;14.32;;;6.50;;
22121;SDS011;11227;53.046;10.512;2022-12-07T00:19:08;12.50;;;5.53;;
22121;SDS011;11227;53.046;10.512;2022-12-07T00:23:11;14.63;;;6.22;;
22121;SDS011;11227;53.046;10.512;2022-12-07T00:27:13;12.93;;;5.68;;
22121;SDS011;11227;53.046;10.512;2022-12-07T00:31:15;11.95;;;5.75;;
22121;SDS011;11227;53.046;10.512;2022-12-07T00:35:18;11.68;;;5.47;;
22121;SDS011;11227;53.046;10.512;2022-12-07T00:39:20;12.57;;;5.78;;
22121;SDS011;11227;53.046;10.512;2022-12-07T00:43:21;12.88;;;6.28;;
22121;SDS011;11227;53.046;10.512;2022-12-07T00:47:23;10.98;;;5.50;;
22121;SDS011;11227;53.046;10.512;2022-12-07T00:51:25;12.75;;;6.00;;
22121;SDS011;11227;53.046;10.512;2022-12-07T00:55:28;12.93;;;5.60;;
22121;SDS011;11227;53.046;10.512;2022-12-07T00:59:33;12.80;;;5.37;;
22121;SDS011;11227;53.046;10.512;2022-12-07T01:03:35;11.27;;;5.63;;
22121;SDS011;11227;53.046;10.512;2022-12-07T01:07:37;12.40;;;5.25;;
22121;SDS011;11227;53.046;10.512;2022-12-07T01:11:39;10.50;;;5.45;;
22121;SDS011;11227;53.046;10.512;2022-12-07T01:15:42;11.38;;;5.45;;
22121;SDS011;11227;53.046;10.512;2022-12-07T01:19:44;9.98;;;5.20;;
22121;SDS011;11227;53.046;10.512;2022-12-07T01:23:46;9.98;;;5.20;;
22121;SDS011;11227;53.046;10.512;2022-12-07T01:27:48;10.25;;;5.00;;
22121;SDS011;11227;53.046;10.512;2022-12-07T01:31:50;8.00;;;4.53;;
22121;SDS011;11227;53.046;10.512;2022-12-07T01:35:51;11.27;;;4.82;;
22121;SDS011;11227;53.046;10.512;2022-12-07T01:39:53;9.25;;;4.60;;
22121;SDS011;11227;53.046;10.512;2022-12-07T01:44:11;9.52;;;4.90;;
22121;SDS011;11227;53.046;10.512;2022-12-07T01:48:15;10.70;;;4.43;;
22121;SDS011;11227;53.046;10.512;2022-12-07T01:52:24;10.88;;;5.18;;
22121;SDS011;11227;53.046;10.512;2022-12-07T01:56:29;9.73;;;4.47;;
22121;SDS011;11227;53.046;10.512;2022-12-07T02:00:32;9.23;;;4.38;;
22121;SDS011;11227;53.046;10.512;2022-12-07T02:04:33;8.68;;;4.25;;
22121;SDS011;11227;53.046;10.512;2022-12-07T02:08:36;9.88;;;4.78;;
22121;SDS011;11227;53.046;10.512;2022-12-07T02:12:39;10.10;;;5.40;;
22121;SDS011;11227;53.046;10.512;2022-12-07T02:16:47;6.30;;;3.72;;
22121;SDS011;11227;53.046;10.512;2022-12-07T02:21:01;7.28;;;4.13;;
22121;SDS011;11227;53.046;10.512;2022-12-07T02:30:13;6.32;;;3.60;;
22121;SDS011;11227;53.046;10.512;2022-12-07T02:34:22;7.03;;;3.97;;
22121;SDS011;11227;53.046;10.512;2022-12-07T02:38:27;7.72;;;3.65;;
22121;SDS011;11227;53.046;10.512;2022-12-07T02:42:37;7.72;;;3.70;;
22121;SDS011;11227;53.046;10.512;2022-12-07T02:46:43;6.65;;;3.95;;
22121;SDS011;11227;53.046;10.512;2022-12-07T02:50:50;6.50;;;3.67;;
22121;SDS011;11227;53.046;10.512;2022-12-07T02:54:53;11.68;;;3.33;;
22121;SDS011;11227;53.046;10.512;2022-12-07T03:03:35;7.32;;;3.90;;
22121;SDS011;11227;53.046;10.512;2022-12-07T03:11:51;7.25;;;3.42;;
22121;SDS011;11227;53.046;10.512;2022-12-07T03:16:16;5.70;;;3.05;;
22121;SDS011;11227;53.046;10.512;2022-12-07T03:20:28;5.78;;;3.55;;
22121;SDS011;11227;53.046;10.512;2022-12-07T03:24:32;7.05;;;3.40;;
22121;SDS011;11227;53.046;10.512;2022-12-07T03:28:41;5.53;;;2.58;;
22121;SDS011;11227;53.046;10.512;2022-12-07T03:37:05;5.35;;;2.88;;
22121;SDS011;11227;53.046;10.512;2022-12-07T03:41:18;5.68;;;2.58;;
22121;SDS011;11227;53.046;10.512;2022-12-07T03:45:37;7.00;;;3.40;;
22121;SDS011;11227;53.046;10.512;2022-12-07T03:49:51;7.15;;;2.90;;
22121;SDS011;11227;53.046;10.512;2022-12-07T03:58:12;5.95;;;3.10;;
22121;SDS011;11227;53.046;10.512;2022-12-07T04:02:20;5.50;;;2.95;;
22121;SDS011;11227;53.046;10.512;2022-12-07T04:06:22;5.55;;;3.15;;
22121;SDS011;11227;53.046;10.512;2022-12-07T04:10:24;4.13;;;2.40;;
22121;SDS011;11227;53.046;10.512;2022-12-07T04:14:26;5.18;;;2.40;;
22121;SDS011;11227;53.046;10.512;2022-12-07T04:18:27;6.30;;;2.78;;
22121;SDS011;11227;53.046;10.512;2022-12-07T04:22:29;5.90;;;2.35;;
22121;SDS011;11227;53.046;10.512;2022-12-07T04:26:31;6.50;;;3.33;;
22121;SDS011;11227;53.046;10.512;2022-12-07T04:30:33;4.75;;;2.78;;
22121;SDS011;11227;53.046;10.512;2022-12-07T04:34:35;4.72;;;2.40;;
22121;SDS011;11227;53.046;10.512;2022-12-07T04:38:37;5.38;;;2.38;;
22121;SDS011;11227;53.046;10.512;2022-12-07T04:42:38;5.82;;;2.60;;
22121;SDS011;11227;53.046;10.512;2022-12-07T04:46:40;4.88;;;2.30;;
22121;SDS011;11227;53.046;10.512;2022-12-07T04:50:43;3.88;;;2.38;;
22121;SDS011;11227;53.046;10.512;2022-12-07T04:54:46;4.28;;;2.25;;
22121;SDS011;11227;53.046;10.512;2022-12-07T04:58:48;3.55;;;2.28;;
22121;SDS011;11227;53.046;10.512;2022-12-07T05:02:50;5.13;;;2.38;;
22121;SDS011;11227;53.046;10.512;2022-12-07T05:06:52;5.03;;;2.15;;
22121;SDS011;11227;53.046;10.512;2022-12-07T05:10:54;3.65;;;2.10;;
22121;SDS011;11227;53.046;10.512;2022-12-07T05:14:55;4.13;;;2.25;;
22121;SDS011;11227;53.046;10.512;2022-12-07T05:18:57;4.13;;;1.80;;
22121;SDS011;11227;53.046;10.512;2022-12-07T05:23:00;3.53;;;2.50;;
22121;SDS011;11227;53.046;10.512;2022-12-07T05:27:01;5.47;;;1.90;;
22121;SDS011;11227;53.046;10.512;2022-12-07T05:31:03;4.45;;;2.30;;
22121;SDS011;11227;53.046;10.512;2022-12-07T05:35:05;3.10;;;1.77;;
22121;SDS011;11227;53.046;10.512;2022-12-07T05:39:07;3.70;;;2.03;;
22121;SDS011;11227;53.046;10.512;2022-12-07T05:43:09;4.10;;;1.65;;
22121;SDS011;11227;53.046;10.512;2022-12-07T05:47:12;4.00;;;1.95;;
22121;SDS011;11227;53.046;10.512;2022-12-07T05:51:15;3.63;;;1.50;;
22121;SDS011;11227;53.046;10.512;2022-12-07T05:55:16;3.50;;;1.55;;
22121;SDS011;11227;53.046;10.512;2022-12-07T05:59:18;2.67;;;1.83;;
22121;SDS011;11227;53.046;10.512;2022-12-07T06:03:28;2.80;;;1.60;;
22121;SDS011;11227;53.046;10.512;2022-12-07T06:07:29;4.78;;;1.50;;
22121;SDS011;11227;53.046;10.512;2022-12-07T06:11:31;5.50;;;1.95;;
22121;SDS011;11227;53.046;10.512;2022-12-07T06:15:52;2.92;;;1.55;;
22121;SDS011;11227;53.046;10.512;2022-12-07T06:19:54;6.13;;;1.85;;
22121;SDS011;11227;53.046;10.512;2022-12-07T06:23:56;7.93;;;1.95;;
22121;SDS011;11227;53.046;10.512;2022-12-07T06:27:57;5.70;;;2.10;;
22121;SDS011;11227;53.046;10.512;2022-12-07T06:31:59;4.75;;;2.00;;
22121;SDS011;11227;53.046;10.512;2022-12-07T06:36:01;7.55;;;2.05;;
22121;SDS011;11227;53.046;10.512;2022-12-07T06:40:02;8.90;;;2.30;;
22121;SDS011;11227;53.046;10.512;2022-12-07T06:44:05;5.50;;;1.92;;
22121;SDS011;11227;53.046;10.512;2022-12-07T06:48:08;5.65;;;1.95;;
22121;SDS011;11227;53.046;10.512;2022-12-07T06:52:10;8.45;;;2.55;;
22121;SDS011;11227;53.046;10.512;2022-12-07T06:56:11;5.05;;;2.28;;
22121;SDS011;11227;53.046;10.512;2022-12-07T07:00:13;7.15;;;2.38;;
22121;SDS011;11227;53.046;10.512;2022-12-07T07:04:22;7.43;;;2.03;;
22121;SDS011;11227;53.046;10.512;2022-12-07T07:08:24;6.43;;;2.30;;
22121;SDS011;11227;53.046;10.512;2022-12-07T07:12:27;4.80;;;2.20;;
22121;SDS011;11227;53.046;10.512;2022-12-07T07:16:29;7.43;;;1.98;;
22121;SDS011;11227;53.046;10.512;2022-12-07T07:20:32;9.15;;;1.98;;
22121;SDS011;11227;53.046;10.512;2022-12-07T07:24:34;7.57;;;2.60;;
22121;SDS011;11227;53.046;10.512;2022-12-07T07:28:35;6.35;;;2.30;;
22121;SDS011;11227;53.046;10.512;2022-12-07T07:32:37;5.85;;;2.20;;
22121;SDS011;11227;53.046;10.512;2022-12-07T07:36:39;6.35;;;2.42;;
22121;SDS011;11227;53.046;10.512;2022-12-07T07:40:41;5.88;;;2.25;;
22121;SDS011;11227;53.046;10.512;2022-12-07T07:44:43;6.25;;;2.10;;
22121;SDS011;11227;53.046;10.512;2022-12-07T07:48:45;6.45;;;2.08;;
22121;SDS011;11227;53.046;10.512;2022-12-07T07:52:46;4.80;;;1.88;;
22121;SDS011;11227;53.046;10.512;2022-12-07T07:56:48;8.82;;;2.42;;
22121;SDS011;11227;53.046;10.512;2022-12-07T08:00:50;3.33;;;1.90;;
22121;SDS011;11227;53.046;10.512;2022-12-07T08:04:52;5.60;;;2.00;;
22121;SDS011;11227;53.046;10.512;2022-12-07T08:08:53;5.88;;;2.55;;
22121;SDS011;11227;53.046;10.512;2022-12-07T08:12:55;6.47;;;1.95;;
22121;SDS011;11227;53.046;10.512;2022-12-07T08:17:13;6.65;;;2.40;;
22121;SDS011;11227;53.046;10.512;2022-12-07T08:21:15;6.75;;;2.42;;
22121;SDS011;11227;53.046;10.512;2022-12-07T08:25:17;4.75;;;2.13;;
22121;SDS011;11227;53.046;10.512;2022-12-07T08:29:19;5.55;;;1.90;;
22121;SDS011;11227;53.046;10.512;2022-12-07T08:33:21;5.07;;;1.83;;
22121;SDS011;11227;53.046;10.512;2022-12-07T08:37:24;3.63;;;2.10;;
22121;SDS011;11227;53.046;10.512;2022-12-07T08:41:25;4.38;;;1.73;;
22121;SDS011;11227;53.046;10.512;2022-12-07T08:45:27;6.22;;;2.10;;
22121;SDS011;11227;53.046;10.512;2022-12-07T08:49:33;8.13;;;2.60;;
22121;SDS011;11227;53.046;10.512;2022-12-07T08:53:40;4.40;;;1.65;;
22121;SDS011;11227;53.046;10.512;2022-12-07T08:57:43;7.80;;;2.15;;
22121;SDS011;11227;53.046;10.512;2022-12-07T09:01:45;4.20;;;1.65;;
22121;SDS011;11227;53.046;10.512;2022-12-07T09:05:47;3.83;;;1.70;;
22121;SDS011;11227;53.046;10.512;2022-12-07T09:09:49;3.78;;;1.80;;
22121;SDS011;11227;53.046;10.512;2022-12-07T09:13:51;4.00;;;1.85;;
22121;SDS011;11227;53.046;10.512;2022-12-07T09:17:52;4.32;;;1.60;;
22121;SDS011;11227;53.046;10.512;2022-12-07T09:21:55;2.72;;;1.50;;
22121;SDS011;11227;53.046;10.512;2022-12-07T09:26:00;3.47;;;1.63;;
22121;SDS011;11227;53.046;10.512;2022-12-07T09:30:10;2.38;;;1.20;;
22121;SDS011;11227;53.046;10.512;2022-12-07T09:34:12;4.15;;;1.90;;
22121;SDS011;11227;53.046;10.512;2022-12-07T09:38:14;4.70;;;1.50;;
22121;SDS011;11227;53.046;10.512;2022-12-07T09:42:27;4.38;;;1.95;;
22121;SDS011;11227;53.046;10.512;2022-12-07T09:46:34;7.20;;;1.90;;
22121;SDS011;11227;53.046;10.512;2022-12-07T09:50:41;4.70;;;1.83;;
22121;SDS011;11227;53.046;10.512;2022-12-07T09:54:44;3.53;;;1.70;;
22121;SDS011;11227;53.046;10.512;2022-12-07T09:58:48;3.57;;;1.70;;
22121;SDS011;11227;53.046;10.512;2022-12-07T10:02:56;2.85;;;1.20;;
22121;SDS011;11227;53.046;10.512;2022-12-07T10:06:59;7.22;;;1.60;;
22121;SDS011;11227;53.046;10.512;2022-12-07T10:11:01;3.70;;;1.70;;
22121;SDS011;11227;53.046;10.512;2022-12-07T10:15:04;2.30;;;1.33;;
22121;SDS011;11227;53.046;10.512;2022-12-07T10:23:25;5.32;;;1.58;;
22121;SDS011;11227;53.046;10.512;2022-12-07T10:27:30;4.38;;;1.60;;
22121;SDS011;11227;53.046;10.512;2022-12-07T10:31:33;4.85;;;1.58;;
22121;SDS011;11227;53.046;10.512;2022-12-07T10:35:42;2.95;;;1.55;;
22121;SDS011;11227;53.046;10.512;2022-12-07T10:43:57;3.95;;;1.55;;
22121;SDS011;11227;53.046;10.512;2022-12-07T11:00:39;4.65;;;1.35;;
22121;SDS011;11227;53.046;10.512;2022-12-07T11:23:26;1.77;;;1.15;;
22121;SDS011;11227;53.046;10.512;2022-12-07T11:28:01;1.50;;;1.00;;
22121;SDS011;11227;53.046;10.512;2022-12-07T11:40:48;2.88;;;1.27;;
22121;SDS011;11227;53.046;10.512;2022-12-07T11:44:56;16.65;;;3.00;;
22121;SDS011;11227;53.046;10.512;2022-12-07T11:49:52;5.35;;;1.10;;
22121;SDS011;11227;53.046;10.512;2022-12-07T11:53:45;9.10;;;1.35;;
22121;SDS011;11227;53.046;10.512;2022-12-07T11:58:04;2.93;;;1.03;;
22121;SDS011;11227;53.046;10.512;2022-12-07T12:02:26;4.45;;;1.10;;
22121;SDS011;11227;53.046;10.512;2022-12-07T12:06:32;6.25;;;1.20;;
22121;SDS011;11227;53.046;10.512;2022-12-07T12:23:39;1.85;;;0.85;;
22121;SDS011;11227;53.046;10.512;2022-12-07T12:27:55;4.57;;;0.95;;
22121;SDS011;11227;53.046;10.512;2022-12-07T12:32:07;4.18;;;1.27;;
22121;SDS011;11227;53.046;10.512;2022-12-07T12:36:23;2.63;;;1.30;;
22121;SDS011;11227;53.046;10.512;2022-12-07T12:48:36;3.08;;;1.40;;
22121;SDS011;11227;53.046;10.512;2022-12-07T12:56:47;2.35;;;1.23;;
22121;SDS011;11227;53.046;10.512;2022-12-07T13:05:29;3.95;;;1.25;;
22121;SDS011;11227;53.046;10.512;2022-12-07T13:09:33;4.05;;;1.40;;
22121;SDS011;11227;53.046;10.512;2022-12-07T13:13:36;2.53;;;1.05;;
22121;SDS011;11227;53.046;10.512;2022-12-07T13:21:41;3.10;;;1.25;;
22121;SDS011;11227;53.046;10.512;2022-12-07T13:30:22;1.58;;;1.10;;
22121;SDS011;11227;53.046;10.512;2022-12-07T13:38:33;3.97;;;1.30;;
22121;SDS011;11227;53.046;10.512;2022-12-07T13:42:37;4.15;;;1.50;;
22121;SDS011;11227;53.046;10.512;2022-12-07T13:46:44;3.47;;;1.27;;
22121;SDS011;11227;53.046;10.512;2022-12-07T13:50:56;2.95;;;1.20;;
22121;SDS011;11227;53.046;10.512;2022-12-07T13:59:03;2.08;;;1.00;;
22121;SDS011;11227;53.046;10.512;2022-12-07T14:11:28;3.97;;;1.48;;
22121;SDS011;11227;53.046;10.512;2022-12-07T14:15:34;4.57;;;1.30;;
22121;SDS011;11227;53.046;10.512;2022-12-07T14:19:53;3.90;;;1.73;;
22121;SDS011;11227;53.046;10.512;2022-12-07T14:28:24;4.68;;;1.40;;
22121;SDS011;11227;53.046;10.512;2022-12-07T14:32:31;2.63;;;1.20;;
22121;SDS011;11227;53.046;10.512;2022-12-07T14:36:33;5.38;;;1.52;;
22121;SDS011;11227;53.046;10.512;2022-12-07T14:40:35;4.25;;;1.40;;
22121;SDS011;11227;53.046;10.512;2022-12-07T14:44:36;3.38;;;1.15;;
22121;SDS011;11227;53.046;10.512;2022-12-07T14:48:38;4.38;;;1.40;;
22121;SDS011;11227;53.046;10.512;2022-12-07T14:53:00;5.00;;;1.25;;
22121;SDS011;11227;53.046;10.512;2022-12-07T14:57:22;4.85;;;1.40;;
22121;SDS011;11227;53.046;10.512;2022-12-07T15:01:24;2.88;;;1.17;;
22121;SDS011;11227;53.046;10.512;2022-12-07T15:05:26;3.50;;;0.98;;
22121;SDS011;11227;53.046;10.512;2022-12-07T15:09:27;2.58;;;1.40;;
22121;SDS011;11227;53.046;10.512;2022-12-07T15:13:29;6.32;;;1.60;;
22121;SDS011;11227;53.046;10.512;2022-12-07T15:17:49;2.25;;;1.30;;
22121;SDS011;11227;53.046;10.512;2022-12-07T15:21:52;2.40;;;1.30;;
22121;SDS011;11227;53.046;10.512;2022-12-07T15:25:54;2.90;;;1.10;;
22121;SDS011;11227;53.046;10.512;2022-12-07T15:29:55;3.13;;;1.45;;
22121;SDS011;11227;53.046;10.512;2022-12-07T15:33:58;2.65;;;1.10;;
22121;SDS011;11227;53.046;10.512;2022-12-07T15:37:59;3.15;;;1.20;;
22121;SDS011;11227;53.046;10.512;2022-12-07T15:42:01;2.15;;;1.00;;
22121;SDS011;11227;53.046;10.512;2022-12-07T15:46:03;11.75;;;1.55;;
22121;SDS011;11227;53.046;10.512;2022-12-07T15:50:06;8.10;;;1.50;;
22121;SDS011;11227;53.046;10.512;2022-12-07T15:54:24;8.88;;;1.52;;
22121;SDS011;11227;53.046;10.512;2022-12-07T15:58:27;4.35;;;1.13;;
22121;SDS011;11227;53.046;10.512;2022-12-07T16:02:29;2.80;;;1.20;;
22121;SDS011;11227;53.046;10.512;2022-12-07T16:06:36;1.05;;;0.80;;
22121;SDS011;11227;53.046;10.512;2022-12-07T16:10:38;4.45;;;1.13;;
22121;SDS011;11227;53.046;10.512;2022-12-07T16:14:44;183.50;;;16.07;;
22121;SDS011;11227;53.046;10.512;2022-12-07T16:18:46;758.90;;;50.83;;
22121;SDS011;11227;53.046;10.512;2022-12-07T16:22:50;375.95;;;25.65;;
22121;SDS011;11227;53.046;10.512;2022-12-07T16:26:53;788.35;;;57.65;;
22121;SDS011;11227;53.046;10.512;2022-12-07T16:31:01;544.92;;;38.38;;
22121;SDS011;11227;53.046;10.512;2022-12-07T16:35:08;251.30;;;19.08;;
22121;SDS011;11227;53.046;10.512;2022-12-07T16:39:11;301.92;;;22.20;;
22121;SDS011;11227;53.046;10.512;2022-12-07T16:43:13;236.52;;;15.88;;
22121;SDS011;11227;53.046;10.512;2022-12-07T16:47:15;224.65;;;19.92;;
22121;SDS011;11227;53.046;10.512;2022-12-07T16:51:17;197.77;;;15.02;;
22121;SDS011;11227;53.046;10.512;2022-12-07T16:55:18;160.23;;;12.20;;
22121;SDS011;11227;53.046;10.512;2022-12-07T16:59:20;155.95;;;13.48;;
22121;SDS011;11227;53.046;10.512;2022-12-07T17:03:22;110.43;;;10.15;;
22121;SDS011;11227;53.046;10.512;2022-12-07T17:07:24;97.05;;;8.65;;
22121;SDS011;11227;53.046;10.512;2022-12-07T17:11:26;76.93;;;7.50;;
22121;SDS011;11227;53.046;10.512;2022-12-07T17:15:30;99.63;;;10.27;;
22121;SDS011;11227;53.046;10.512;2022-12-07T17:19:31;59.90;;;6.15;;
22121;SDS011;11227;53.046;10.512;2022-12-07T17:23:33;79.07;;;8.93;;
22121;SDS011;11227;53.046;10.512;2022-12-07T17:27:36;67.22;;;6.55;;
22121;SDS011;11227;53.046;10.512;2022-12-07T17:31:38;49.83;;;6.05;;
22121;SDS011;11227;53.046;10.512;2022-12-07T17:35:45;37.67;;;4.65;;
22121;SDS011;11227;53.046;10.512;2022-12-07T17:39:47;41.75;;;4.40;;
22121;SDS011;11227;53.046;10.512;2022-12-07T17:43:49;31.60;;;4.55;;
22121;SDS011;11227;53.046;10.512;2022-12-07T17:47:50;43.33;;;4.43;;
22121;SDS011;11227;53.046;10.512;2022-12-07T17:51:53;40.50;;;5.50;;
22121;SDS011;11227;53.046;10.512;2022-12-07T17:56:13;36.75;;;3.53;;
22121;SDS011;11227;53.046;10.512;2022-12-07T18:00:31;31.27;;;3.67;;
22121;SDS011;11227;53.046;10.512;2022-12-07T18:04:38;41.85;;;6.32;;
22121;SDS011;11227;53.046;10.512;2022-12-07T18:08:42;27.63;;;3.38;;
22121;SDS011;11227;53.046;10.512;2022-12-07T18:12:43;28.35;;;4.07;;
22121;SDS011;11227;53.046;10.512;2022-12-07T18:16:51;25.35;;;3.90;;
22121;SDS011;11227;53.046;10.512;2022-12-07T18:20:53;20.50;;;2.70;;
22121;SDS011;11227;53.046;10.512;2022-12-07T18:24:55;16.27;;;2.92;;
22121;SDS011;11227;53.046;10.512;2022-12-07T18:28:58;15.77;;;2.80;;
22121;SDS011;11227;53.046;10.512;2022-12-07T18:33:00;12.07;;;2.65;;
22121;SDS011;11227;53.046;10.512;2022-12-07T18:37:02;14.30;;;2.20;;
22121;SDS011;11227;53.046;10.512;2022-12-07T18:41:05;13.90;;;2.45;;
22121;SDS011;11227;53.046;10.512;2022-12-07T18:45:08;9.25;;;2.67;;
22121;SDS011;11227;53.046;10.512;2022-12-07T18:49:11;12.35;;;2.47;;
22121;SDS011;11227;53.046;10.512;2022-12-07T18:53:13;14.43;;;2.80;;
22121;SDS011;11227;53.046;10.512;2022-12-07T18:57:16;15.02;;;2.25;;
22121;SDS011;11227;53.046;10.512;2022-12-07T19:01:17;12.95;;;2.45;;
22121;SDS011;11227;53.046;10.512;2022-12-07T19:05:19;11.40;;;2.30;;
22121;SDS011;11227;53.046;10.512;2022-12-07T19:09:22;9.35;;;2.00;;
22121;SDS011;11227;53.046;10.512;2022-12-07T19:13:23;13.90;;;2.35;;
22121;SDS011;11227;53.046;10.512;2022-12-07T19:17:25;10.02;;;2.03;;
22121;SDS011;11227;53.046;10.512;2022-12-07T19:21:27;7.53;;;1.75;;
22121;SDS011;11227;53.046;10.512;2022-12-07T19:25:28;6.20;;;1.98;;
22121;SDS011;11227;53.046;10.512;2022-12-07T19:29:36;11.60;;;1.98;;
22121;SDS011;11227;53.046;10.512;2022-12-07T19:33:40;7.63;;;1.95;;
22121;SDS011;11227;53.046;10.512;2022-12-07T19:37:42;6.32;;;1.85;;
22121;SDS011;11227;53.046;10.512;2022-12-07T19:41:44;13.57;;;1.98;;
22121;SDS011;11227;53.046;10.512;2022-12-07T19:45:46;7.00;;;2.03;;
22121;SDS011;11227;53.046;10.512;2022-12-07T19:49:48;8.55;;;2.00;;
22121;SDS011;11227;53.046;10.512;2022-12-07T19:53:49;5.68;;;1.73;;
22121;SDS011;11227;53.046;10.512;2022-12-07T19:57:51;7.38;;;1.50;;
22121;SDS011;11227;53.046;10.512;2022-12-07T20:01:53;8.65;;;1.90;;
22121;SDS011;11227;53.046;10.512;2022-12-07T20:05:55;9.07;;;1.75;;
22121;SDS011;11227;53.046;10.512;2022-12-07T20:09:57;15.20;;;2.42;;
22121;SDS011;11227;53.046;10.512;2022-12-07T20:13:59;4.10;;;1.90;;
22121;SDS011;11227;53.046;10.512;2022-12-07T20:18:01;8.48;;;2.22;;
22121;SDS011;11227;53.046;10.512;2022-12-07T20:22:03;8.90;;;1.75;;
22121;SDS011;11227;53.046;10.512;2022-12-07T20:26:09;4.88;;;1.70;;
22121;SDS011;11227;53.046;10.512;2022-12-07T20:30:12;4.60;;;1.52;;
22121;SDS011;11227;53.046;10.512;2022-12-07T20:34:14;8.23;;;1.83;;
22121;SDS011;11227;53.046;10.512;2022-12-07T20:38:16;6.47;;;2.03;;
22121;SDS011;11227;53.046;10.512;2022-12-07T20:42:18;7.97;;;2.60;;
22121;SDS011;11227;53.046;10.512;2022-12-07T20:46:38;6.00;;;2.63;;
22121;SDS011;11227;53.046;10.512;2022-12-07T20:50:40;11.10;;;2.65;;
22121;SDS011;11227;53.046;10.512;2022-12-07T20:54:42;9.43;;;3.10;;
22121;SDS011;11227;53.046;10.512;2022-12-07T20:58:44;7.13;;;3.20;;
22121;SDS011;11227;53.046;10.512;2022-12-07T21:02:46;13.25;;;3.10;;
22121;SDS011;11227;53.046;10.512;2022-12-07T21:06:48;5.80;;;3.85;;
22121;SDS011;11227;53.046;10.512;2022-12-07T21:10:50;10.98;;;4.10;;
22121;SDS011;11227;53.046;10.512;2022-12-07T21:14:52;7.13;;;4.03;;
22121;SDS011;11227;53.046;10.512;2022-12-07T21:18:54;9.93;;;5.20;;
22121;SDS011;11227;53.046;10.512;2022-12-07T21:22:57;11.70;;;5.88;;
22121;SDS011;11227;53.046;10.512;2022-12-07T21:26:59;11.50;;;6.60;;
22121;SDS011;11227;53.046;10.512;2022-12-07T21:31:01;8.88;;;6.38;;
22121;SDS011;11227;53.046;10.512;2022-12-07T21:35:13;17.95;;;8.35;;
22121;SDS011;11227;53.046;10.512;2022-12-07T21:39:15;17.33;;;8.45;;
22121;SDS011;11227;53.046;10.512;2022-12-07T21:43:17;14.55;;;9.27;;
22121;SDS011;11227;53.046;10.512;2022-12-07T21:47:19;12.57;;;9.88;;
22121;SDS011;11227;53.046;10.512;2022-12-07T21:51:21;21.02;;;11.15;;
22121;SDS011;11227;53.046;10.512;2022-12-07T21:55:24;17.00;;;12.25;;
22121;SDS011;11227;53.046;10.512;2022-12-07T21:59:25;17.08;;;12.32;;
22121;SDS011;11227;53.046;10.512;2022-12-07T22:03:27;16.83;;;14.23;;
22121;SDS011;11227;53.046;10.512;2022-12-07T22:07:29;19.52;;;14.93;;
22121;SDS011;11227;53.046;10.512;2022-12-07T22:11:31;21.50;;;16.08;;
22121;SDS011;11227;53.046;10.512;2022-12-07T22:15:33;22.45;;;16.85;;
22121;SDS011;11227;53.046;10.512;2022-12-07T22:19:35;24.73;;;18.55;;
22121;SDS011;11227;53.046;10.512;2022-12-07T22:23:36;21.98;;;18.10;;
22121;SDS011;11227;53.046;10.512;2022-12-07T22:27:38;23.23;;;20.30;;
22121;SDS011;11227;53.046;10.512;2022-12-07T22:31:41;28.13;;;20.90;;
22121;SDS011;11227;53.046;10.512;2022-12-07T22:35:43;27.17;;;21.90;;
22121;SDS011;11227;53.046;10.512;2022-12-07T22:39:52;31.98;;;23.55;;
22121;SDS011;11227;53.046;10.512;2022-12-07T22:43:53;27.60;;;23.23;;
22121;SDS011;11227;53.046;10.512;2022-12-07T22:47:56;30.08;;;23.95;;
22121;SDS011;11227;53.046;10.512;2022-12-07T22:51:57;38.30;;;26.48;;
22121;SDS011;11227;53.046;10.512;2022-12-07T22:55:59;35.03;;;26.10;;
22121;SDS011;11227;53.046;10.512;2022-12-07T23:00:00;32.72;;;27.30;;
22121;SDS011;11227;53.046;10.512;2022-12-07T23:04:02;36.70;;;29.95;;
22121;SDS011;11227;53.046;10.512;2022-12-07T23:08:05;38.60;;;30.65;;
22121;SDS011;11227;53.046;10.512;2022-12-07T23:12:08;32.80;;;28.95;;
22121;SDS011;11227;53.046;10.512;2022-12-07T23:16:28;38.22;;;33.10;;
22121;SDS011;11227;53.046;10.512;2022-12-07T23:20:30;38.92;;;32.53;;
22121;SDS011;11227;53.046;10.512;2022-12-07T23:24:32;39.92;;;33.72;;
22121;SDS011;11227;53.046;10.512;2022-12-07T23:28:34;44.38;;;33.92;;
22121;SDS011;11227;53.046;10.512;2022-12-07T23:32:37;38.92;;;33.25;;
22121;SDS011;11227;53.046;10.512;2022-12-07T23:36:39;44.15;;;37.58;;
22121;SDS011;11227;53.046;10.512;2022-12-07T23:40:40;43.35;;;37.67;;
22121;SDS011;11227;53.046;10.512;2022-12-07T23:44:42;46.45;;;38.83;;
22121;SDS011;11227;53.046;10.512;2022-12-07T23:48:44;45.10;;;39.25;;
22121;SDS011;11227;53.046;10.512;2022-12-07T23:52:47;48.30;;;42.78;;
22121;SDS011;11227;53.046;10.512;2022-12-07T23:56:48;50.50;;;41.30;;
